sensor_id;sensor_type;location;lat;lon;timestamp;pressure;altitude;pressure_sealevel;temperature;humidity
55068;BME280;40965;52.368;9.712;2023-10-08T00:01:08;101343.56;;;12.70;100.00
55068;BME280;40965;52.368;9.712;2023-10-08T00:03:38;101352.25;;;12.73;100.00
55068;BME280;40965;52.368;9.712;2023-10-08T00:06:06;101357.50;;;12.78;100.00
55068;BME280;40965;52.368;9.712;2023-10-08T00:08:37;101373.22;;;12.86;100.00
55068;BME280;40965;52.368;9.712;2023-10-08T00:11:04;101377.63;;;12.81;100.00
55068;BME280;40965;52.368;9.712;2023-10-08T00:13:33;101382.00;;;12.83;100.00
55068;BME280;40965;52.368;9.712;2023-10-08T00:16:14;101375.84;;;12.81;100.00
55068;BME280;40965;52.368;9.712;2023-10-08T00:18:43;101370.63;;;12.78;100.00
55068;BME280;40965;52.368;9.712;2023-10-08T00:21:15;101381.97;;;12.85;100.00
55068;BME280;40965;52.368;9.712;2023-10-08T00:23:43;101381.13;;;12.80;100.00
55068;BME280;40965;52.368;9.712;2023-10-08T00:26:17;101375.06;;;12.70;100.00
55068;BME280;40965;52.368;9.712;2023-10-08T00:29:05;101375.97;;;12.67;100.00
55068;BME280;40965;52.368;9.712;2023-10-08T00:31:40;101390.88;;;12.57;100.00
55068;BME280;40965;52.368;9.712;2023-10-08T00:34:07;101394.41;;;12.53;100.00
55068;BME280;40965;52.368;9.712;2023-10-08T00:36:40;101409.31;;;12.48;100.00
55068;BME280;40965;52.368;9.712;2023-10-08T00:39:08;101422.50;;;12.37;100.00
55068;BME280;40965;52.368;9.712;2023-10-08T00:41:42;101427.75;;;12.39;100.00
55068;BME280;40965;52.368;9.712;2023-10-08T00:44:13;101428.59;;;12.46;100.00
55068;BME280;40965;52.368;9.712;2023-10-08T00:46:47;101439.09;;;12.41;100.00
55068;BME280;40965;52.368;9.712;2023-10-08T00:49:16;101461.88;;;12.40;100.00
55068;BME280;40965;52.368;9.712;2023-10-08T00:51:56;101466.28;;;12.32;100.00
55068;BME280;40965;52.368;9.712;2023-10-08T00:54:29;101468.06;;;12.19;100.00
55068;BME280;40965;52.368;9.712;2023-10-08T00:56:59;101475.97;;;12.10;100.00
55068;BME280;40965;52.368;9.712;2023-10-08T00:59:33;101481.22;;;12.02;100.00
55068;BME280;40965;52.368;9.712;2023-10-08T01:02:09;101484.72;;;12.04;100.00
55068;BME280;40965;52.368;9.712;2023-10-08T01:04:40;101485.63;;;11.96;100.00
55068;BME280;40965;52.368;9.712;2023-10-08T01:07:10;101495.19;;;11.92;100.00
55068;BME280;40965;52.368;9.712;2023-10-08T01:09:41;101496.09;;;11.82;100.00
55068;BME280;40965;52.368;9.712;2023-10-08T01:12:21;101511.81;;;11.74;100.00
55068;BME280;40965;52.368;9.712;2023-10-08T01:14:50;101518.81;;;11.80;100.00
55068;BME280;40965;52.368;9.712;2023-10-08T01:17:20;101520.56;;;11.78;100.00
55068;BME280;40965;52.368;9.712;2023-10-08T01:19:50;101521.44;;;11.58;100.00
55068;BME280;40965;52.368;9.712;2023-10-08T01:22:21;101535.41;;;11.46;100.00
55068;BME280;40965;52.368;9.712;2023-10-08T01:24:50;101532.75;;;11.31;100.00
55068;BME280;40965;52.368;9.712;2023-10-08T01:27:20;101528.41;;;11.36;100.00
55068;BME280;40965;52.368;9.712;2023-10-08T01:29:51;101526.66;;;11.39;100.00
55068;BME280;40965;52.368;9.712;2023-10-08T01:32:19;101535.38;;;11.41;100.00
55068;BME280;40965;52.368;9.712;2023-10-08T01:34:49;101532.78;;;11.52;100.00
55068;BME280;40965;52.368;9.712;2023-10-08T01:37:17;101538.03;;;11.58;100.00
55068;BME280;40965;52.368;9.712;2023-10-08T01:39:47;101526.69;;;11.66;100.00
55068;BME280;40965;52.368;9.712;2023-10-08T01:42:16;101518.81;;;11.61;100.00
55068;BME280;40965;52.368;9.712;2023-10-08T01:44:49;101516.19;;;11.53;100.00
55068;BME280;40965;52.368;9.712;2023-10-08T01:47:20;101538.91;;;11.64;100.00
55068;BME280;40965;52.368;9.712;2023-10-08T01:49:50;101547.66;;;11.70;100.00
55068;BME280;40965;52.368;9.712;2023-10-08T01:52:25;101554.66;;;11.71;100.00
55068;BME280;40965;52.368;9.712;2023-10-08T01:54:51;101546.78;;;11.73;100.00
55068;BME280;40965;52.368;9.712;2023-10-08T01:57:19;101525.81;;;11.73;100.00
55068;BME280;40965;52.368;9.712;2023-10-08T01:59:46;101557.28;;;11.70;100.00
55068;BME280;40965;52.368;9.712;2023-10-08T02:02:12;101559.91;;;11.65;100.00
55068;BME280;40965;52.368;9.712;2023-10-08T02:04:40;101546.78;;;11.70;100.00
55068;BME280;40965;52.368;9.712;2023-10-08T02:07:09;101559.88;;;11.56;100.00
55068;BME280;40965;52.368;9.712;2023-10-08T02:09:38;101550.25;;;11.46;100.00
55068;BME280;40965;52.368;9.712;2023-10-08T02:12:05;101545.00;;;11.36;100.00
55068;BME280;40965;52.368;9.712;2023-10-08T02:14:33;101552.84;;;11.35;100.00
55068;BME280;40965;52.368;9.712;2023-10-08T02:17:01;101545.84;;;11.34;100.00
55068;BME280;40965;52.368;9.712;2023-10-08T02:19:34;101555.47;;;11.30;100.00
55068;BME280;40965;52.368;9.712;2023-10-08T02:22:05;101557.22;;;11.31;100.00
55068;BME280;40965;52.368;9.712;2023-10-08T02:24:35;101542.38;;;11.33;100.00
55068;BME280;40965;52.368;9.712;2023-10-08T02:27:05;101538.88;;;11.37;100.00
55068;BME280;40965;52.368;9.712;2023-10-08T02:29:35;101534.53;;;11.42;100.00
55068;BME280;40965;52.368;9.712;2023-10-08T02:32:05;101530.16;;;11.48;100.00
55068;BME280;40965;52.368;9.712;2023-10-08T02:34:32;101534.53;;;11.47;100.00
55068;BME280;40965;52.368;9.712;2023-10-08T02:37:00;101536.28;;;11.47;100.00
55068;BME280;40965;52.368;9.712;2023-10-08T02:39:29;101545.91;;;11.49;100.00
55068;BME280;40965;52.368;9.712;2023-10-08T02:42:00;101532.78;;;11.52;100.00
55068;BME280;40965;52.368;9.712;2023-10-08T02:44:26;101547.66;;;11.50;100.00
55068;BME280;40965;52.368;9.712;2023-10-08T02:46:53;101548.53;;;11.48;100.00
55068;BME280;40965;52.368;9.712;2023-10-08T02:49:21;101545.91;;;11.48;100.00
55068;BME280;40965;52.368;9.712;2023-10-08T02:51:53;101545.03;;;11.47;100.00
55068;BME280;40965;52.368;9.712;2023-10-08T02:54:21;101552.00;;;11.50;100.00
55068;BME280;40965;52.368;9.712;2023-10-08T02:56:56;101556.38;;;11.52;100.00
55068;BME280;40965;52.368;9.712;2023-10-08T02:59:28;101572.13;;;11.55;100.00
55068;BME280;40965;52.368;9.712;2023-10-08T03:02:06;101563.41;;;11.56;100.00
55068;BME280;40965;52.368;9.712;2023-10-08T03:04:40;101545.03;;;11.56;100.00
55068;BME280;40965;52.368;9.712;2023-10-08T03:07:14;101531.91;;;11.50;100.00
55068;BME280;40965;52.368;9.712;2023-10-08T03:09:48;101546.78;;;11.54;100.00
55068;BME280;40965;52.368;9.712;2023-10-08T03:12:18;101541.53;;;11.57;100.00
55068;BME280;40965;52.368;9.712;2023-10-08T03:14:50;101537.19;;;11.56;100.00
55068;BME280;40965;52.368;9.712;2023-10-08T03:17:29;101537.16;;;11.55;100.00
55068;BME280;40965;52.368;9.712;2023-10-08T03:20:02;101544.16;;;11.57;100.00
55068;BME280;40965;52.368;9.712;2023-10-08T03:22:51;101547.66;;;11.58;100.00
55068;BME280;40965;52.368;9.712;2023-10-08T03:25:18;101570.38;;;11.56;100.00
55068;BME280;40965;52.368;9.712;2023-10-08T03:27:45;101586.09;;;11.54;100.00
55068;BME280;40965;52.368;9.712;2023-10-08T03:30:13;101591.34;;;11.51;100.00
55068;BME280;40965;52.368;9.712;2023-10-08T03:32:42;101605.34;;;11.56;100.00
55068;BME280;40965;52.368;9.712;2023-10-08T03:35:10;101605.34;;;11.58;100.00
55068;BME280;40965;52.368;9.712;2023-10-08T03:37:38;101599.22;;;11.57;100.00
55068;BME280;40965;52.368;9.712;2023-10-08T03:40:12;101609.72;;;11.56;100.00
55068;BME280;40965;52.368;9.712;2023-10-08T03:42:51;101603.59;;;11.57;100.00
55068;BME280;40965;52.368;9.712;2023-10-08T03:45:21;101603.56;;;11.52;100.00
55068;BME280;40965;52.368;9.712;2023-10-08T03:48:02;101610.59;;;11.56;100.00
55068;BME280;40965;52.368;9.712;2023-10-08T03:50:31;101600.13;;;11.56;100.00
55068;BME280;40965;52.368;9.712;2023-10-08T03:53:06;101595.72;;;11.57;100.00
55068;BME280;40965;52.368;9.712;2023-10-08T03:55:40;101597.50;;;11.56;100.00
55068;BME280;40965;52.368;9.712;2023-10-08T03:58:10;101602.69;;;11.55;100.00
55068;BME280;40965;52.368;9.712;2023-10-08T04:00:45;101613.19;;;11.50;100.00
55068;BME280;40965;52.368;9.712;2023-10-08T04:03:12;101607.94;;;11.52;100.00
55068;BME280;40965;52.368;9.712;2023-10-08T04:05:48;101619.34;;;11.54;100.00
55068;BME280;40965;52.368;9.712;2023-10-08T04:08:29;101616.72;;;11.55;100.00
55068;BME280;40965;52.368;9.712;2023-10-08T04:11:11;101628.06;;;11.54;100.00
55068;BME280;40965;52.368;9.712;2023-10-08T04:13:55;101638.53;;;11.50;100.00
55068;BME280;40965;52.368;9.712;2023-10-08T04:16:25;101644.66;;;11.47;100.00
55068;BME280;40965;52.368;9.712;2023-10-08T04:18:54;101634.16;;;11.44;100.00
55068;BME280;40965;52.368;9.712;2023-10-08T04:21:24;101644.63;;;11.44;100.00
55068;BME280;40965;52.368;9.712;2023-10-08T04:23:53;101653.41;;;11.49;100.00
55068;BME280;40965;52.368;9.712;2023-10-08T04:26:23;101650.78;;;11.51;100.00
55068;BME280;40965;52.368;9.712;2023-10-08T04:28:53;101646.44;;;11.51;100.00
55068;BME280;40965;52.368;9.712;2023-10-08T04:31:23;101658.63;;;11.49;100.00
55068;BME280;40965;52.368;9.712;2023-10-08T04:33:53;101656.88;;;11.48;100.00
55068;BME280;40965;52.368;9.712;2023-10-08T04:36:20;101659.50;;;11.47;100.00
55068;BME280;40965;52.368;9.712;2023-10-08T04:38:47;101658.66;;;11.45;100.00
55068;BME280;40965;52.368;9.712;2023-10-08T04:41:15;101656.00;;;11.43;100.00
55068;BME280;40965;52.368;9.712;2023-10-08T04:43:56;101647.25;;;11.44;100.00
55068;BME280;40965;52.368;9.712;2023-10-08T04:46:26;101653.38;;;11.43;100.00
55068;BME280;40965;52.368;9.712;2023-10-08T04:49:15;101663.84;;;11.43;100.00
55068;BME280;40965;52.368;9.712;2023-10-08T04:52:00;101664.75;;;11.42;100.00
55068;BME280;40965;52.368;9.712;2023-10-08T04:54:34;101664.75;;;11.42;100.00
55068;BME280;40965;52.368;9.712;2023-10-08T04:57:10;101670.00;;;11.42;100.00
55068;BME280;40965;52.368;9.712;2023-10-08T04:59:44;101660.38;;;11.42;100.00
55068;BME280;40965;52.368;9.712;2023-10-08T05:02:12;101647.25;;;11.39;100.00
55068;BME280;40965;52.368;9.712;2023-10-08T05:04:49;101656.84;;;11.40;100.00
55068;BME280;40965;52.368;9.712;2023-10-08T05:07:33;101650.75;;;11.43;100.00
55068;BME280;40965;52.368;9.712;2023-10-08T05:10:17;101656.88;;;11.42;100.00
55068;BME280;40965;52.368;9.712;2023-10-08T05:13:09;101652.50;;;11.42;100.00
55068;BME280;40965;52.368;9.712;2023-10-08T05:15:45;101669.09;;;11.41;100.00
55068;BME280;40965;52.368;9.712;2023-10-08T05:18:28;101676.09;;;11.46;100.00
55068;BME280;40965;52.368;9.712;2023-10-08T05:21:19;101690.09;;;11.45;100.00
55068;BME280;40965;52.368;9.712;2023-10-08T05:23:53;101696.22;;;11.44;100.00
55068;BME280;40965;52.368;9.712;2023-10-08T05:26:34;101711.03;;;11.41;100.00
55068;BME280;40965;52.368;9.712;2023-10-08T05:29:09;101707.56;;;11.42;100.00
55068;BME280;40965;52.368;9.712;2023-10-08T05:31:53;101704.94;;;11.41;100.00
55068;BME280;40965;52.368;9.712;2023-10-08T05:34:45;101700.56;;;11.38;100.00
55068;BME280;40965;52.368;9.712;2023-10-08T05:37:36;101718.88;;;11.35;100.00
55068;BME280;40965;52.368;9.712;2023-10-08T05:40:08;101723.25;;;11.35;100.00
55068;BME280;40965;52.368;9.712;2023-10-08T05:43:06;101719.72;;;11.33;100.00
55068;BME280;40965;52.368;9.712;2023-10-08T05:45:48;101729.41;;;11.37;100.00
55068;BME280;40965;52.368;9.712;2023-10-08T05:48:38;101724.16;;;11.38;100.00
55068;BME280;40965;52.368;9.712;2023-10-08T05:51:10;101718.91;;;11.38;100.00
55068;BME280;40965;52.368;9.712;2023-10-08T05:53:39;101728.53;;;11.39;100.00
55068;BME280;40965;52.368;9.712;2023-10-08T05:56:09;101739.03;;;11.42;100.00
55068;BME280;40965;52.368;9.712;2023-10-08T05:58:53;101749.50;;;11.44;100.00
55068;BME280;40965;52.368;9.712;2023-10-08T06:01:39;101753.03;;;11.45;100.00
55068;BME280;40965;52.368;9.712;2023-10-08T06:04:07;101754.78;;;11.47;100.00
55068;BME280;40965;52.368;9.712;2023-10-08T06:07:06;101759.13;;;11.44;100.00
55068;BME280;40965;52.368;9.712;2023-10-08T06:09:37;101745.13;;;11.40;100.00
55068;BME280;40965;52.368;9.712;2023-10-08T06:12:05;101740.78;;;11.42;100.00
55068;BME280;40965;52.368;9.712;2023-10-08T06:14:45;101739.00;;;11.38;100.00
55068;BME280;40965;52.368;9.712;2023-10-08T06:17:29;101762.59;;;11.38;100.00
55068;BME280;40965;52.368;9.712;2023-10-08T06:20:21;101767.00;;;11.44;100.00
55068;BME280;40965;52.368;9.712;2023-10-08T06:22:51;101753.91;;;11.47;100.00
55068;BME280;40965;52.368;9.712;2023-10-08T06:25:24;101760.03;;;11.50;100.00
55068;BME280;40965;52.368;9.712;2023-10-08T06:27:56;101769.66;;;11.51;100.00
55068;BME280;40965;52.368;9.712;2023-10-08T06:30:24;101763.56;;;11.54;100.00
55068;BME280;40965;52.368;9.712;2023-10-08T06:32:54;101783.69;;;11.58;100.00
55068;BME280;40965;52.368;9.712;2023-10-08T06:35:24;101781.97;;;11.62;100.00
55068;BME280;40965;52.368;9.712;2023-10-08T06:37:53;101790.69;;;11.64;100.00
55068;BME280;40965;52.368;9.712;2023-10-08T06:40:26;101773.22;;;11.67;100.00
55068;BME280;40965;52.368;9.712;2023-10-08T06:43:08;101769.75;;;11.68;100.00
55068;BME280;40965;52.368;9.712;2023-10-08T06:45:50;101781.13;;;11.73;100.00
55068;BME280;40965;52.368;9.712;2023-10-08T06:48:22;101796.88;;;11.78;100.00
55068;BME280;40965;52.368;9.712;2023-10-08T06:50:52;101796.91;;;11.83;100.00
55068;BME280;40965;52.368;9.712;2023-10-08T06:53:22;101812.69;;;11.94;100.00
55068;BME280;40965;52.368;9.712;2023-10-08T06:55:49;101818.03;;;12.11;100.00
55068;BME280;40965;52.368;9.712;2023-10-08T06:58:25;101822.44;;;12.22;100.00
55068;BME280;40965;52.368;9.712;2023-10-08T07:00:52;101826.81;;;12.25;100.00
55068;BME280;40965;52.368;9.712;2023-10-08T07:03:20;101833.84;;;12.28;100.00
55068;BME280;40965;52.368;9.712;2023-10-08T07:05:49;101832.09;;;12.33;100.00
55068;BME280;40965;52.368;9.712;2023-10-08T07:08:25;101836.50;;;12.31;100.00
55068;BME280;40965;52.368;9.712;2023-10-08T07:10:57;101836.50;;;12.40;100.00
55068;BME280;40965;52.368;9.712;2023-10-08T07:13:26;101824.22;;;12.33;100.00
55068;BME280;40965;52.368;9.712;2023-10-08T07:15:55;101841.75;;;12.45;100.00
55068;BME280;40965;52.368;9.712;2023-10-08T07:18:22;101838.31;;;12.84;100.00
55068;BME280;40965;52.368;9.712;2023-10-08T07:20:52;101840.97;;;13.17;100.00
55068;BME280;40965;52.368;9.712;2023-10-08T07:23:23;101852.34;;;13.06;100.00
55068;BME280;40965;52.368;9.712;2023-10-08T07:25:52;101867.22;;;13.23;100.00
55068;BME280;40965;52.368;9.712;2023-10-08T07:28:27;101857.59;;;13.19;100.00
55068;BME280;40965;52.368;9.712;2023-10-08T07:30:55;101869.00;;;13.29;100.00
55068;BME280;40965;52.368;9.712;2023-10-08T07:33:23;101862.84;;;13.34;100.00
55068;BME280;40965;52.368;9.712;2023-10-08T07:35:50;101853.19;;;13.35;100.00
55068;BME280;40965;52.368;9.712;2023-10-08T07:38:22;101848.81;;;13.31;100.00
55068;BME280;40965;52.368;9.712;2023-10-08T07:40:52;101850.56;;;13.24;100.00
55068;BME280;40965;52.368;9.712;2023-10-08T07:43:21;101850.56;;;13.32;100.00
55068;BME280;40965;52.368;9.712;2023-10-08T07:45:47;101859.34;;;13.52;100.00
55068;BME280;40965;52.368;9.712;2023-10-08T07:48:14;101861.91;;;13.72;100.00
55068;BME280;40965;52.368;9.712;2023-10-08T07:50:42;101848.81;;;13.66;98.86
55068;BME280;40965;52.368;9.712;2023-10-08T07:53:14;101866.34;;;13.63;97.27
55068;BME280;40965;52.368;9.712;2023-10-08T07:55:45;101875.09;;;13.72;98.25
55068;BME280;40965;52.368;9.712;2023-10-08T07:58:14;101877.72;;;13.77;97.26
55068;BME280;40965;52.368;9.712;2023-10-08T08:00:42;101879.47;;;13.75;97.66
55068;BME280;40965;52.368;9.712;2023-10-08T08:03:18;101877.72;;;13.77;96.06
55068;BME280;40965;52.368;9.712;2023-10-08T08:05:45;101882.06;;;13.84;95.52
55068;BME280;40965;52.368;9.712;2023-10-08T08:08:20;101882.06;;;13.89;94.86
55068;BME280;40965;52.368;9.712;2023-10-08T08:10:48;101877.66;;;13.88;93.16
55068;BME280;40965;52.368;9.712;2023-10-08T08:13:15;101875.06;;;13.79;92.79
55068;BME280;40965;52.368;9.712;2023-10-08T08:15:46;101886.47;;;13.82;89.78
55068;BME280;40965;52.368;9.712;2023-10-08T08:18:16;101896.13;;;13.85;90.89
55068;BME280;40965;52.368;9.712;2023-10-08T08:20:48;101902.22;;;13.95;89.52
55068;BME280;40965;52.368;9.712;2023-10-08T08:23:15;101904.81;;;14.07;90.23
55068;BME280;40965;52.368;9.712;2023-10-08T08:25:42;101906.53;;;14.14;88.81
55068;BME280;40965;52.368;9.712;2023-10-08T08:28:21;101894.19;;;14.29;88.55
55068;BME280;40965;52.368;9.712;2023-10-08T08:30:54;101895.06;;;14.37;89.08
55068;BME280;40965;52.368;9.712;2023-10-08T08:33:22;101896.75;;;14.44;87.96
55068;BME280;40965;52.368;9.712;2023-10-08T08:36:02;101900.28;;;14.42;87.06
55068;BME280;40965;52.368;9.712;2023-10-08T08:38:30;101905.53;;;14.46;86.77
55068;BME280;40965;52.368;9.712;2023-10-08T08:41:04;101904.56;;;14.61;86.77
55068;BME280;40965;52.368;9.712;2023-10-08T08:43:35;101908.97;;;14.67;86.74
55068;BME280;40965;52.368;9.712;2023-10-08T08:46:03;101915.97;;;14.71;84.25
55068;BME280;40965;52.368;9.712;2023-10-08T08:48:33;101907.88;;;15.02;80.34
55068;BME280;40965;52.368;9.712;2023-10-08T08:51:00;101916.66;;;14.98;80.08
55068;BME280;40965;52.368;9.712;2023-10-08T08:53:27;101918.56;;;14.79;81.05
55068;BME280;40965;52.368;9.712;2023-10-08T08:55:55;101916.81;;;14.82;81.12
55068;BME280;40965;52.368;9.712;2023-10-08T08:58:21;101924.56;;;15.02;80.89
55068;BME280;40965;52.368;9.712;2023-10-08T09:00:52;101932.41;;;15.15;80.07
55068;BME280;40965;52.368;9.712;2023-10-08T09:03:21;101936.78;;;15.13;78.90
55068;BME280;40965;52.368;9.712;2023-10-08T09:05:55;101936.91;;;14.97;79.68
55068;BME280;40965;52.368;9.712;2023-10-08T09:08:28;101946.63;;;14.89;79.42
55068;BME280;40965;52.368;9.712;2023-10-08T09:11:00;101959.75;;;14.95;78.87
55068;BME280;40965;52.368;9.712;2023-10-08T09:13:28;101955.38;;;14.91;77.46
55068;BME280;40965;52.368;9.712;2023-10-08T09:16:02;101958.88;;;14.96;78.40
55068;BME280;40965;52.368;9.712;2023-10-08T09:18:41;101948.31;;;14.96;76.29
55068;BME280;40965;52.368;9.712;2023-10-08T09:21:11;101959.72;;;15.01;75.50
55068;BME280;40965;52.368;9.712;2023-10-08T09:23:41;101963.84;;;15.38;75.02
55068;BME280;40965;52.368;9.712;2023-10-08T09:26:13;101965.34;;;15.70;72.35
55068;BME280;40965;52.368;9.712;2023-10-08T09:28:45;101961.75;;;15.79;73.25
55068;BME280;40965;52.368;9.712;2023-10-08T09:31:14;101964.53;;;15.60;71.16
55068;BME280;40965;52.368;9.712;2023-10-08T09:33:55;101959.03;;;15.86;72.19
55068;BME280;40965;52.368;9.712;2023-10-08T09:36:23;101955.88;;;15.46;67.35
55068;BME280;40965;52.368;9.712;2023-10-08T09:38:58;101968.16;;;15.48;67.65
55068;BME280;40965;52.368;9.712;2023-10-08T09:41:28;101957.44;;;15.67;69.96
55068;BME280;40965;52.368;9.712;2023-10-08T09:43:56;101954.94;;;16.38;70.82
55068;BME280;40965;52.368;9.712;2023-10-08T09:46:31;101960.19;;;17.09;64.27
55068;BME280;40965;52.368;9.712;2023-10-08T09:49:00;101950.63;;;17.56;61.50
55068;BME280;40965;52.368;9.712;2023-10-08T09:51:29;101951.63;;;16.93;58.33
55068;BME280;40965;52.368;9.712;2023-10-08T09:54:17;101946.22;;;17.55;58.00
55068;BME280;40965;52.368;9.712;2023-10-08T09:56:58;101947.03;;;18.51;56.48
55068;BME280;40965;52.368;9.712;2023-10-08T09:59:27;101955.44;;;19.11;54.19
55068;BME280;40965;52.368;9.712;2023-10-08T10:01:55;101945.09;;;19.71;48.99
55068;BME280;40965;52.368;9.712;2023-10-08T10:04:25;101946.31;;;19.92;47.49
55068;BME280;40965;52.368;9.712;2023-10-08T10:06:54;101941.81;;;20.57;47.78
55068;BME280;40965;52.368;9.712;2023-10-08T10:09:26;101939.75;;;20.96;45.26
55068;BME280;40965;52.368;9.712;2023-10-08T10:11:56;101925.72;;;20.91;44.00
55068;BME280;40965;52.368;9.712;2023-10-08T10:14:25;101932.94;;;21.68;45.12
55068;BME280;40965;52.368;9.712;2023-10-08T10:17:19;101933.19;;;22.35;44.52
55068;BME280;40965;52.368;9.712;2023-10-08T10:20:00;101946.69;;;22.30;41.51
55068;BME280;40965;52.368;9.712;2023-10-08T10:22:33;101943.81;;;21.08;45.89
55068;BME280;40965;52.368;9.712;2023-10-08T10:25:04;101937.47;;;18.44;51.57
55068;BME280;40965;52.368;9.712;2023-10-08T10:30:22;101975.88;;;19.09;49.25
55068;BME280;40965;52.368;9.712;2023-10-08T10:32:52;101987.16;;;18.76;50.15
55068;BME280;40965;52.368;9.712;2023-10-08T10:35:18;101982.78;;;18.33;51.53
55068;BME280;40965;52.368;9.712;2023-10-08T10:37:48;101985.16;;;18.00;52.07
55068;BME280;40965;52.368;9.712;2023-10-08T10:40:24;101968.91;;;17.70;51.11
55068;BME280;40965;52.368;9.712;2023-10-08T10:43:01;101980.34;;;18.21;50.56
55068;BME280;40965;52.368;9.712;2023-10-08T10:45:32;101978.16;;;19.24;47.36
55068;BME280;40965;52.368;9.712;2023-10-08T10:48:05;101966.84;;;20.81;45.25
55068;BME280;40965;52.368;9.712;2023-10-08T10:50:41;101960.94;;;22.05;40.89
55068;BME280;40965;52.368;9.712;2023-10-08T10:53:40;101963.63;;;21.26;40.34
55068;BME280;40965;52.368;9.712;2023-10-08T10:56:12;101964.59;;;20.36;43.89
55068;BME280;40965;52.368;9.712;2023-10-08T10:58:46;101977.38;;;21.39;41.92
55068;BME280;40965;52.368;9.712;2023-10-08T11:01:22;101964.59;;;22.52;40.12
55068;BME280;40965;52.368;9.712;2023-10-08T11:03:50;101982.00;;;23.30;38.71
55068;BME280;40965;52.368;9.712;2023-10-08T11:06:19;101969.66;;;24.69;37.81
55068;BME280;40965;52.368;9.712;2023-10-08T11:08:50;101956.19;;;22.85;39.85
55068;BME280;40965;52.368;9.712;2023-10-08T11:11:28;101943.09;;;22.07;41.07
55068;BME280;40965;52.368;9.712;2023-10-08T11:13:59;101961.88;;;22.28;41.22
55068;BME280;40965;52.368;9.712;2023-10-08T11:16:26;101964.59;;;22.52;41.25
55068;BME280;40965;52.368;9.712;2023-10-08T11:18:56;101973.31;;;22.79;40.98
55068;BME280;40965;52.368;9.712;2023-10-08T11:21:26;101943.66;;;23.52;39.77
55068;BME280;40965;52.368;9.712;2023-10-08T11:23:59;101913.97;;;23.78;39.20
55068;BME280;40965;52.368;9.712;2023-10-08T11:26:37;101934.88;;;23.89;37.80
55068;BME280;40965;52.368;9.712;2023-10-08T11:29:06;101928.25;;;24.19;38.15
55068;BME280;40965;52.368;9.712;2023-10-08T11:31:39;101954.22;;;24.36;37.65
55068;BME280;40965;52.368;9.712;2023-10-08T11:34:11;101976.59;;;24.73;36.09
55068;BME280;40965;52.368;9.712;2023-10-08T11:36:39;101977.41;;;24.94;36.65
55068;BME280;40965;52.368;9.712;2023-10-08T11:39:21;101974.41;;;26.40;31.67
55068;BME280;40965;52.368;9.712;2023-10-08T11:42:00;101967.25;;;25.01;32.76
55068;BME280;40965;52.368;9.712;2023-10-08T11:44:32;101933.16;;;23.26;37.47
55068;BME280;40965;52.368;9.712;2023-10-08T11:47:02;101930.16;;;23.12;37.77
55068;BME280;40965;52.368;9.712;2023-10-08T11:49:38;101927.59;;;22.17;38.06
55068;BME280;40965;52.368;9.712;2023-10-08T11:52:12;101926.09;;;22.34;36.47
55068;BME280;40965;52.368;9.712;2023-10-08T11:54:41;101933.34;;;23.42;36.75
55068;BME280;40965;52.368;9.712;2023-10-08T11:57:08;101950.78;;;23.08;35.57
55068;BME280;40965;52.368;9.712;2023-10-08T11:59:36;101940.97;;;22.87;36.40
55068;BME280;40965;52.368;9.712;2023-10-08T12:02:06;101956.16;;;22.62;37.05
55068;BME280;40965;52.368;9.712;2023-10-08T12:04:33;101954.03;;;21.74;38.19
55068;BME280;40965;52.368;9.712;2023-10-08T12:07:01;101952.72;;;21.34;39.51
55068;BME280;40965;52.368;9.712;2023-10-08T12:09:32;101946.06;;;21.47;39.55
55068;BME280;40965;52.368;9.712;2023-10-08T12:12:04;101939.03;;;20.61;41.46
55068;BME280;40965;52.368;9.712;2023-10-08T12:14:35;101931.38;;;20.19;42.80
55068;BME280;40965;52.368;9.712;2023-10-08T12:17:03;101940.84;;;19.98;43.22
55068;BME280;40965;52.368;9.712;2023-10-08T12:19:37;101945.34;;;19.61;43.74
55068;BME280;40965;52.368;9.712;2023-10-08T12:22:05;101934.09;;;18.37;46.84
55068;BME280;40965;52.368;9.712;2023-10-08T12:24:34;101930.19;;;18.55;46.69
55068;BME280;40965;52.368;9.712;2023-10-08T12:27:00;101933.97;;;18.82;45.91
55068;BME280;40965;52.368;9.712;2023-10-08T12:29:28;101942.31;;;19.06;45.82
55068;BME280;40965;52.368;9.712;2023-10-08T12:31:58;101936.63;;;19.20;45.28
55068;BME280;40965;52.368;9.712;2023-10-08T12:34:34;101925.16;;;19.54;44.71
55068;BME280;40965;52.368;9.712;2023-10-08T12:37:00;101927.44;;;20.03;44.26
55068;BME280;40965;52.368;9.712;2023-10-08T12:39:27;101919.97;;;21.04;41.94
55068;BME280;40965;52.368;9.712;2023-10-08T12:41:55;101906.88;;;21.24;41.07
55068;BME280;40965;52.368;9.712;2023-10-08T12:44:30;101899.50;;;21.59;40.39
55068;BME280;40965;52.368;9.712;2023-10-08T12:46:58;101891.94;;;21.96;39.90
55068;BME280;40965;52.368;9.712;2023-10-08T12:49:25;101885.69;;;21.97;38.66
55068;BME280;40965;52.368;9.712;2023-10-08T12:51:58;101873.00;;;22.04;39.44
55068;BME280;40965;52.368;9.712;2023-10-08T12:54:27;101854.50;;;22.46;38.28
55068;BME280;40965;52.368;9.712;2023-10-08T12:56:58;101847.69;;;23.04;37.90
55068;BME280;40965;52.368;9.712;2023-10-08T12:59:25;101848.13;;;23.16;36.93
55068;BME280;40965;52.368;9.712;2023-10-08T13:01:55;101858.16;;;22.88;37.55
55068;BME280;40965;52.368;9.712;2023-10-08T13:04:22;101867.56;;;22.75;38.39
55068;BME280;40965;52.368;9.712;2023-10-08T13:06:54;101860.94;;;22.63;38.25
55068;BME280;40965;52.368;9.712;2023-10-08T13:09:23;101866.63;;;20.80;41.46
55068;BME280;40965;52.368;9.712;2023-10-08T13:11:50;101878.03;;;20.25;41.95